Latest Weather Observations for Leonora Airport

IDW60801

Issued at 10:05 am WST Saturday 1 November 2014 (issued every 30 minutes, with the page automatically refreshed every 10 minutes)

About weather observations | Map of weather stations | Latest weather observations for WA | Other Formats
Station Details ID: 012241 Name: LEONORA AERO Lat: -28.88 Lon: 121.32 Height: 370.0 m
Data from the previous 72 hours. | See also: Recent months for locations in Western Australia
Date/Time
WST
Temp
°C
App
Temp
°C
Dew
Point
Rel
Hum
%
Delta-T
°C
Wind Press
QNH
hPa
Press
MSL
hPa
Rain
since 9 am
mm
Dir
 
Spd
km/h
Gust
km/h
Spd
kts
Gust
kts
01/10:00am 20.1 15.7 5.0 37 7.5 ENE 17 28 9 15 1020.9 1019.0 0.0
01/09:30am 19.6 13.9 4.9 38 7.2 ESE 24 28 13 15 1021.2 1019.2 0.0
01/09:00am 19.6 14.4 5.6 40 7.0 E 22 33 12 18 1021.2 1019.2 0.0
01/08:30am 17.9 11.5 5.2 43 6.2 E 28 41 15 22 1021.4 1019.4 0.0
01/08:00am 17.4 11.0 5.0 44 6.0 E 28 39 15 21 1021.2 1019.2 0.0
01/07:30am 16.7 10.3 5.0 46 5.7 E 28 41 15 22 1020.9 1019.5 0.0
01/07:00am 15.9 9.1 4.9 48 5.3 E 30 41 16 22 1020.7 1019.3 0.0
01/06:30am 15.7 9.3 5.0 49 5.2 E 28 37 15 20 1020.6 1019.2 0.0
01/06:00am 15.4 9.3 5.0 50 5.0 ESE 26 33 14 18 1020.1 1018.7 0.0
01/05:30am 15.4 8.6 5.3 51 4.9 E 30 43 16 23 1019.6 1018.1 0.0
01/05:00am 15.6 9.7 5.8 52 4.8 E 26 44 14 24 1019.1 1017.6 0.0
01/04:57am 15.6 9.3 5.8 52 4.8 E 28 46 15 25 1019.0 1017.5 0.0
01/04:30am 16.4 9.5 6.5 52 4.9 E 32 44 17 24 1018.6 1017.1 0.0
01/04:00am 16.9 11.6 7.0 52 5.0 ESE 24 37 13 20 1017.8 1016.4 0.0
01/03:30am 17.3 12.5 4.9 44 6.0 ESE 19 26 10 14 1017.4 1016.0 0.0
01/03:00am 17.9 12.9 4.8 42 6.4 SE 20 32 11 17 1017.0 1015.5 0.0
01/02:30am 18.4 13.1 4.9 41 6.6 ESE 22 32 12 17 1016.8 1015.3 0.0
01/02:00am 18.8 13.9 4.9 40 6.8 ESE 20 32 11 17 1016.7 1015.2 0.0
01/01:30am 19.1 14.1 4.8 39 7.0 ESE 20 28 11 15 1016.6 1015.1 0.0
01/01:00am 19.3 14.1 5.4 40 6.9 ESE 22 30 12 16 1016.3 1014.8 0.0
01/12:30am 19.5 14.6 5.2 39 7.1 ESE 20 33 11 18 1016.5 1015.0 0.0
01/12:00am 20.0 15.1 5.3 38 7.3 SE 20 30 11 16 1016.7 1015.2 0.0
 
Date/Time
WST
Temp
°C
App
Temp
°C
Dew
Point
Rel
Hum
%
Delta-T
°C
Wind Press
QNH
hPa
Press
MSL
hPa
Rain
since 9 am
mm
Dir
 
Spd
km/h
Gust
km/h
Spd
kts
Gust
kts
31/11:30pm 20.3 15.7 5.5 38 7.4 SE 19 28 10 15 1016.8 1015.3 0.0
31/11:00pm 20.7 15.9 5.5 37 7.7 SE 20 28 11 15 1016.8 1015.3 0.0
31/10:30pm 21.2 16.4 5.5 36 7.9 SE 20 30 11 16 1016.8 1015.3 0.0
31/10:00pm 21.7 17.0 5.2 34 8.3 SE 19 26 10 14 1016.7 1015.2 0.0
31/09:30pm 22.4 17.5 4.9 32 8.8 SE 20 32 11 17 1016.6 1015.1 0.0
31/09:00pm 22.9 18.1 4.4 30 9.3 SSE 19 30 10 16 1016.4 1014.9 0.0
31/08:30pm 23.4 18.5 4.9 30 9.4 SSE 20 30 11 16 1016.0 1014.5 0.0
31/08:00pm 23.8 19.0 5.7 31 9.3 S 20 32 11 17 1015.5 1014.0 0.0
31/07:30pm 24.7 19.8 3.9 26 10.5 SSE 19 26 10 14 1015.0 1013.6 0.0
31/07:00pm 25.1 19.9 3.7 25 10.7 SSE 20 28 11 15 1014.6 1013.1 0.0
31/06:30pm 25.6 21.3 1.0 20 11.8 S 13 20 7 11 1014.0 1012.5 0.0
31/06:00pm 26.3 21.1 0.1 18 12.4 S 17 22 9 12 1013.5 1012.0 0.0
31/05:30pm 27.2 21.4 0.1 17 12.9 S 20 28 11 15 1013.2 1011.7 0.0
31/05:00pm 27.8 22.5 -0.3 16 13.4 S 17 26 9 14 1012.9 1011.4 0.0
31/04:30pm 28.3 23.1 0.1 16 13.6 SSE 17 28 9 15 1012.4 1010.9 0.0
31/04:00pm 28.2 23.4 0.0 16 13.5 SSE 15 22 8 12 1012.2 1010.7 0.0
31/03:30pm 29.0 23.8 -0.2 15 14.0 SSW 17 28 9 15 1012.2 1010.7 0.0
31/03:00pm 28.7 22.5 -4.6 11 14.8 WSW 19 28 10 15 1012.1 1010.6 0.0
31/02:30pm 27.9 23.0 2.2 19 12.8 SW 17 28 9 15 1012.2 1010.7 0.0
31/02:00pm 27.4 22.6 2.5 20 12.4 SSW 17 26 9 14 1012.4 1010.9 0.0
31/01:30pm 26.6 21.9 3.2 22 11.8 SSW 17 26 9 14 1012.8 1011.3 0.0
31/01:00pm 26.2 20.4 0.0 18 12.4 WSW 20 28 11 15 1013.0 1011.5 0.0
31/12:30pm 26.5 21.6 4.3 24 11.4 SSW 19 30 10 16 1013.2 1011.7 0.0
31/12:00pm 25.6 20.6 3.5 24 11.1 SW 19 30 10 16 1013.3 1011.8 0.0
31/11:30am 25.0 20.2 5.7 29 10.0 SW 20 32 11 17 1013.5 1012.0 0.0
31/11:00am 25.1 20.6 6.3 30 9.9 SW 19 22 10 12 1013.6 1012.1 0.0
31/10:30am 23.9 20.5 7.5 35 8.8 SSW 15 24 8 13 1013.8 1012.3 0.0
31/10:00am 22.1 19.1 7.5 39 7.7 SW 13 28 7 15 1013.9 1012.4 0.0
31/09:30am 22.4 19.1 8.1 40 7.6 SSW 15 26 8 14 1013.9 1012.4 0.0
31/09:00am 20.9 17.3 8.2 44 6.7 SSW 17 28 9 15 1013.8 1012.3 0.0
31/08:30am 19.7 16.0 8.1 47 6.1 SSW 17 24 9 13 1014.0 1012.5 0.0
31/08:00am 19.9 16.0 8.6 48 6.0 SSW 19 28 10 15 1013.8 1012.3 0.0
31/07:30am 19.5 15.3 8.2 48 6.0 SSW 20 32 11 17 1013.7 1012.2 0.0
31/07:00am 19.0 14.8 8.1 49 5.7 SSW 20 32 11 17 1013.3 1011.8 0.0
31/06:30am 19.0 14.8 8.1 49 5.7 SW 20 28 11 15 1012.9 1011.4 0.0
31/06:00am 19.0 14.9 7.8 48 5.8 SW 19 30 10 16 1012.6 1011.1 0.0
31/05:30am 18.9 15.9 7.7 48 5.8 SW 13 20 7 11 1012.0 1010.5 0.0
31/05:00am 19.4 16.0 7.8 47 6.1 SSW 15 20 8 11 1011.4 1009.9 0.0
31/04:30am 19.9 16.9 7.9 46 6.3 SW 13 19 7 10 1010.9 1009.4 0.0
31/04:00am 20.6 17.6 7.9 44 6.7 SW 13 20 7 11 1010.5 1009.0 0.0
31/03:30am 21.2 17.7 7.4 41 7.2 SW 15 20 8 11 1010.1 1008.5 0.0
31/03:00am 21.4 18.5 6.5 38 7.7 SW 11 15 6 8 1009.9 1008.3 0.0
31/02:30am 21.4 19.2 6.1 37 7.8 W 7 9 4 5 1009.5 1008.0 0.0
31/02:00am 22.0 19.8 6.3 36 8.1 WSW 7 11 4 6 1009.2 1007.7 0.0
31/01:30am 22.7 20.1 6.0 34 8.6 SW 9 11 5 6 1009.0 1007.5 0.0
31/01:00am 23.2 21.0 6.0 33 8.9 SW 7 11 4 6 1009.1 1007.6 0.0
31/12:30am 24.0 21.3 5.8 31 9.4 SW 9 11 5 6 1009.3 1007.8 0.0
31/12:00am 25.3 22.2 5.5 28 10.3 SW 11 19 6 10 1009.4 1007.9 0.0
 
Date/Time
WST
Temp
°C
App
Temp
°C
Dew
Point
Rel
Hum
%
Delta-T
°C
Wind Press
QNH
hPa
Press
MSL
hPa
Rain
since 9 am
mm
Dir
 
Spd
km/h
Gust
km/h
Spd
kts
Gust
kts
30/11:30pm 26.3 21.7 5.8 27 10.8 SW 19 26 10 14 1009.5 1008.0 0.0
30/11:00pm 25.1 22.2 4.8 27 10.4 W 9 13 5 7 1009.5 1008.0 0.0
30/10:30pm 25.0 22.4 4.2 26 10.5 WSW 7 11 4 6 1009.3 1007.8 0.0
30/10:00pm 26.2 23.2 4.1 24 11.3 W 9 11 5 6 1009.3 1007.8 0.0
30/09:30pm 27.3 24.2 3.7 22 12.0 W 9 13 5 7 1009.3 1007.8 0.0
30/09:00pm 28.1 24.6 3.7 21 12.5 W 11 13 6 7 1009.3 1007.8 0.0
30/08:30pm 28.7 24.8 3.5 20 12.9 W 13 15 7 8 1009.1 1007.6 0.0
30/08:00pm 29.2 26.0 3.2 19 13.3 W 9 11 5 6 1008.8 1007.3 0.0
30/07:30pm 30.1 26.8 2.4 17 14.0 W 9 11 5 6 1008.4 1006.9 0.0
30/07:00pm 31.4 27.2 1.7 15 15.0 W 13 17 7 9 1008.1 1006.6 0.0
30/06:30pm 32.6 28.0 1.7 14 15.7 W 15 22 8 12 1007.8 1006.3 0.0
30/06:00pm 33.7 27.6 0.4 12 16.7 W 22 28 12 15 1007.5 1005.9 0.0
30/05:30pm 34.5 28.9 1.0 12 17.0 WSW 20 30 11 16 1007.2 1005.6 0.0
30/05:00pm 34.8 28.8 1.2 12 17.2 W 22 32 12 17 1006.9 1005.3 0.0
30/04:30pm 35.6 28.4 0.6 11 17.8 W 28 35 15 19 1006.9 1005.3 0.0
30/04:00pm 35.7 28.7 1.9 12 17.6 W 28 43 15 23 1007.0 1005.4 0.0
30/03:30pm 35.9 29.9 3.2 13 17.4 WNW 24 43 13 23 1007.1 1005.5 0.0
30/03:00pm 35.6 30.5 4.0 14 17.0 NW 20 28 11 15 1007.2 1005.6 0.0
30/02:43pm 35.8 29.0 3.1 13 17.3 WNW 28 43 15 23 1007.4 1005.8 0.0
30/02:30pm 34.8 30.3 4.4 15 16.4 WSW 17 20 9 11 1007.5 1005.9 0.0
30/02:00pm 35.5 31.9 6.7 17 16.1 W 15 32 8 17 1007.9 1006.4 0.0
30/01:30pm 34.9 29.9 4.4 15 16.4 NW 20 37 11 20 1008.4 1006.9 0.0
30/01:00pm 33.3 30.0 9.4 23 13.8 NNW 17 28 9 15 1009.0 1007.5 0.0
30/12:30pm 32.5 29.7 9.9 25 13.1 WNW 15 44 8 24 1009.8 1008.2 0.0
30/12:00pm 31.8 29.5 10.5 27 12.4 WNW 13 26 7 14 1010.2 1008.7 0.0
30/11:30am 30.7 28.1 10.6 29 11.7 WNW 15 24 8 13 1010.8 1009.3 0.0
30/11:00am 30.3 26.8 10.8 30 11.4 WNW 20 30 11 16 1011.2 1009.7 0.0
30/10:30am 29.5 27.8 11.1 32 10.7 WNW 11 28 6 15 1011.6 1010.1 0.0
30/10:00am 28.9 25.8 11.5 34 10.2 WSW 19 24 10 13 1012.0 1010.5 0.0
30/09:30am 28.1 27.3 11.6 36 9.6 NW 7 13 4 7 1012.6 1011.1 0.0
30/09:00am 26.5 25.8 11.4 39 8.7 WSW 6 11 3 6 1013.1 1011.6 0.6
30/08:30am 26.1 25.3 11.8 41 8.3 WSW 7 15 4 8 1013.4 1011.9 0.6
30/08:00am 25.4 24.0 12.3 44 7.7 W 11 17 6 9 1013.6 1012.1 0.6
30/07:30am 24.8 23.2 12.7 47 7.1 WSW 13 20 7 11 1013.8 1012.3 0.6
30/07:00am 23.2 21.1 12.5 51 6.2 WNW 15 22 8 12 1013.3 1011.8 0.6
30/06:30am 22.1 20.5 12.9 56 5.3 WNW 13 19 7 10 1013.2 1011.7 0.6
30/06:00am 20.4 19.3 13.1 63 4.2 WNW 11 13 6 7 1013.0 1011.5 0.6
30/05:30am 19.7 18.4 12.5 63 4.1 W 11 15 6 8 1012.8 1011.3 0.6
30/05:00am 19.4 18.7 11.9 62 4.2 WNW 7 13 4 7 1011.9 1010.4 0.6
30/04:30am 20.5 19.2 11.4 56 5.1 WNW 9 13 5 7 1011.5 1010.0 0.6
30/04:00am 22.1 19.6 11.2 50 6.2 N 15 22 8 12 1011.1 1009.6 0.6
30/03:30am 22.3 19.5 11.4 50 6.2 N 17 24 9 13 1011.0 1009.5 0.6
30/03:00am 22.0 19.9 12.3 54 5.6 NNE 15 20 8 11 1011.2 1009.7 0.6
30/02:30am 21.2 20.5 13.1 60 4.7 NE 9 11 5 6 1011.5 1010.0 0.6
30/02:00am 21.0 20.3 13.2 61 4.5 ENE 9 11 5 6 1011.9 1010.4 0.6
30/01:30am 21.4 21.0 13.1 59 4.8 ENE 7 11 4 6 1012.6 1011.1 0.6
30/01:00am 21.3 21.0 13.2 60 4.7 ENE 7 9 4 5 1012.9 1011.4 0.6
30/12:30am 21.9 21.6 13.3 58 5.0 NNE 7 15 4 8 1013.2 1011.7 0.6
30/12:00am 22.0 21.4 13.4 58 5.0 NE 9 15 5 8 1013.3 1011.8 0.6
 
Date/Time
WST
Temp
°C
App
Temp
°C
Dew
Point
Rel
Hum
%
Delta-T
°C
Wind Press
QNH
hPa
Press
MSL
hPa
Rain
since 9 am
mm
Dir
 
Spd
km/h
Gust
km/h
Spd
kts
Gust
kts
29/11:30pm 22.3 20.5 13.4 57 5.2 NNE 15 22 8 12 1013.3 1011.8 0.6
29/11:00pm 22.6 20.1 13.4 56 5.4 NNE 19 28 10 15 1013.2 1011.7 0.6
29/10:30pm 23.0 20.9 13.5 55 5.6 NNE 17 24 9 13 1013.7 1012.2 0.6
29/10:00pm 23.5 21.3 13.4 53 6.0 NNE 17 22 9 12 1014.0 1012.5 0.6
29/09:30pm 23.8 23.2 13.6 52 6.0 ESE 9 19 5 10 1014.4 1012.9 0.6
29/09:00pm 24.0 22.4 13.8 53 6.1 N 15 24 8 13 1015.5 1014.0 0.6
29/08:30pm 24.3 22.2 13.5 51 6.4 NNE 17 20 9 11 1013.8 1012.3 0.6
29/08:00pm 24.0 21.9 13.5 52 6.2 N 17 24 9 13 1013.9 1012.4 0.6
29/07:30pm 24.2 21.4 13.1 50 6.5 NNE 20 28 11 15 1013.1 1011.6 0.6
29/07:00pm 24.3 22.2 13.5 51 6.4 NE 17 26 9 14 1012.6 1011.1 0.6
29/06:30pm 23.3 19.5 14.8 59 5.1 NNE 28 39 15 21 1012.0 1010.5 0.6
29/06:00pm 23.2 22.5 15.5 62 4.7 NNE 13 19 7 10 1012.0 1010.5 0.6
29/05:51pm 22.5 20.1 16.3 68 3.8 ENE 24 32 13 17 1011.8 1010.3 0.6
29/05:30pm 22.7 22.2 15.8 65 4.2 N 13 20 7 11 1013.9 1012.4 0.4
29/05:14pm 24.0 19.8 14.7 56 5.6 NNW 30 48 16 26 1014.8 1013.3 0.2
29/05:00pm 27.0 23.8 13.0 42 8.3 N 22 32 12 17 1013.9 1012.4 0.0
29/04:58pm 27.4 23.8 11.8 38 9.1 N 22 32 12 17 1013.3 1011.8 0.0
29/04:30pm 29.8 25.6 8.2 26 12.0 NE 20 33 11 18 1011.2 1009.7 0.0
29/04:00pm 31.7 27.9 7.4 22 13.5 NNE 17 24 9 13 1010.7 1009.2 0.0
29/03:30pm 31.1 27.7 9.3 26 12.4 N 17 20 9 11 1010.3 1008.8 0.0
29/03:00pm 30.5 27.2 9.4 27 12.0 NNE 17 22 9 12 1010.4 1008.9 0.0
29/02:30pm 30.6 29.2 9.5 27 12.1 ENE 7 13 4 7 1010.5 1009.0 0.0
29/02:00pm 29.8 26.7 8.8 27 11.8 NNE 15 26 8 14 1010.8 1009.3 0.0
29/01:30pm 30.0 25.8 8.4 26 12.1 N 20 30 11 16 1011.5 1010.0 0.0
29/01:00pm 29.7 28.3 8.7 27 11.8 WNW 6 13 3 7 1011.2 1009.7 0.0
29/12:30pm 29.4 23.8 7.3 25 12.1 N 26 33 14 18 1012.2 1010.7 0.0
29/12:00pm 31.2 26.8 7.6 23 13.1 N 20 26 11 14 1012.7 1011.2 0.0
29/11:30am 32.0 27.6 7.6 22 13.6 NE 20 30 11 16 1011.9 1010.4 0.0
29/11:00am 31.3 27.3 8.9 25 12.7 NE 20 28 11 15 1011.9 1010.4 0.0
29/10:30am 30.9 26.5 7.4 23 13.0 NNE 20 30 11 16 1012.3 1010.8 0.0

Other Formats:

Comma delimited format used in spreadsheet applications
http://www.bom.gov.au/fwo/IDW60801/IDW60801.94450.axf

JavaScript Object Notation format (JSON) in row-major order
http://www.bom.gov.au/fwo/IDW60801/IDW60801.94450.json